Time;durP1;ratioP1;P1;durP2;ratioP2;P2;SDS_P1;SDS_P2;PMS_P1;PMS_P2;Temp;Humidity;BMP_temperature;BMP_pressure;BME280_temperature;BME280_humidity;BME280_pressure;Samples;Min_cycle;Max_cycle;Signal;HPM_P1;HPM_P2
2023/01/16 00:00:47;;;;;;;21.30;12.77;;;;;;;6.50;100.00;96420.75;4857591;29;20045;-83
2023/01/16 00:03:13;;;;;;;21.30;12.43;;;;;;;6.48;100.00;96406.34;4853646;29;20041;-81
2023/01/16 00:05:40;;;;;;;18.08;11.40;;;;;;;6.52;100.00;96407.50;4835221;29;20030;-83
2023/01/16 00:08:05;;;;;;;19.38;10.18;;;;;;;6.53;100.00;96403.88;4853900;29;20504;-83
2023/01/16 00:10:31;;;;;;;14.93;9.93;;;;;;;6.47;100.00;96402.97;4856192;29;20068;-84
2023/01/16 00:12:56;;;;;;;18.15;11.52;;;;;;;6.46;100.00;96398.78;4851859;29;20040;-84
2023/01/16 00:15:25;;;;;;;18.45;10.30;;;;;;;6.34;100.00;96385.81;4851217;29;20045;-83
2023/01/16 00:17:51;;;;;;;19.27;11.70;;;;;;;6.42;100.00;96390.63;4852706;29;20049;-83
2023/01/16 00:20:16;;;;;;;19.95;10.70;;;;;;;6.31;100.00;96377.66;4851639;29;20044;-84
2023/01/16 00:22:42;;;;;;;17.50;11.07;;;;;;;6.28;100.00;96378.91;4854052;29;20029;-84
2023/01/16 00:25:08;;;;;;;20.00;12.23;;;;;;;6.32;100.00;96390.47;4853852;29;20033;-84
2023/01/16 00:27:34;;;;;;;19.63;12.38;;;;;;;6.32;100.00;96384.44;4857824;29;20048;-83
2023/01/16 00:30:00;;;;;;;22.85;12.93;;;;;;;6.24;100.00;96380.41;4836792;29;20030;-82
2023/01/16 00:32:26;;;;;;;19.65;12.45;;;;;;;6.14;100.00;96368.78;4841603;29;20030;-84
2023/01/16 00:34:52;;;;;;;19.75;13.32;;;;;;;6.10;100.00;96366.88;4852065;29;20062;-84
2023/01/16 00:37:17;;;;;;;23.05;12.38;;;;;;;5.94;100.00;96344.94;4851917;29;20033;-85
2023/01/16 00:39:43;;;;;;;20.55;12.25;;;;;;;5.90;100.00;96354.22;4852349;29;20376;-84
2023/01/16 00:42:08;;;;;;;19.45;12.57;;;;;;;5.80;100.00;96347.78;4838929;29;20034;-84
2023/01/16 00:44:35;;;;;;;17.50;11.10;;;;;;;5.78;100.00;96351.63;4829304;29;20117;-84
2023/01/16 00:47:01;;;;;;;16.10;10.18;;;;;;;5.67;100.00;96342.81;4852808;29;20113;-84
2023/01/16 00:49:26;;;;;;;17.15;10.70;;;;;;;5.53;100.00;96331.88;4852864;29;20073;-85
2023/01/16 00:51:53;;;;;;;18.38;10.50;;;;;;;5.57;100.00;96344.22;4834314;29;20449;-85
2023/01/16 00:54:18;;;;;;;15.15;9.35;;;;;;;5.47;100.00;96338.78;4854266;29;20034;-83
2023/01/16 00:56:44;;;;;;;19.83;10.15;;;;;;;5.37;100.00;96328.19;4855952;29;20098;-84
2023/01/16 00:59:11;;;;;;;19.85;10.45;;;;;;;5.27;100.00;96329.53;4850738;29;20033;-84
2023/01/16 01:01:37;;;;;;;15.63;10.80;;;;;;;5.23;100.00;96332.81;4850950;29;20116;-83
2023/01/16 01:04:07;;;;;;;21.80;11.10;;;;;;;5.18;100.00;96319.69;4851503;29;20044;-83
2023/01/16 01:06:35;;;;;;;23.27;12.07;;;;;;;5.13;100.00;96321.16;4853116;29;20018;-84
2023/01/16 01:09:06;;;;;;;17.67;10.82;;;;;;;5.14;100.00;96320.16;4832471;29;20069;-84
2023/01/16 01:11:32;;;;;;;28.48;16.02;;;;;;;5.13;100.00;96323.00;4854563;29;20037;-83
2023/01/16 01:14:03;;;;;;;20.48;13.35;;;;;;;5.11;100.00;96312.00;4837664;29;20067;-83
2023/01/16 01:16:28;;;;;;;30.98;16.58;;;;;;;5.21;100.00;96320.03;4846307;29;20050;-84
2023/01/16 01:18:54;;;;;;;26.67;13.85;;;;;;;5.23;100.00;96318.00;4837707;29;20034;-83
2023/01/16 01:21:20;;;;;;;24.20;14.07;;;;;;;5.29;100.00;96306.69;4850115;29;20392;-84
2023/01/16 01:23:45;;;;;;;30.63;15.13;;;;;;;5.28;100.00;96299.91;4856099;29;21519;-83
2023/01/16 01:26:15;;;;;;;33.65;15.75;;;;;;;5.38;100.00;96298.53;4832340;29;20025;-83
2023/01/16 01:28:40;;;;;;;30.95;16.00;;;;;;;5.42;100.00;96297.06;4837970;29;20030;-83
2023/01/16 01:31:11;;;;;;;35.22;16.60;;;;;;;5.51;100.00;96294.91;4847474;29;20034;-83
2023/01/16 01:33:39;;;;;;;30.33;17.23;;;;;;;5.48;100.00;96288.31;4854236;29;20038;-83
2023/01/16 01:36:06;;;;;;;34.65;17.10;;;;;;;5.45;100.00;96280.97;4834835;29;20034;-84
2023/01/16 01:38:33;;;;;;;29.23;15.68;;;;;;;5.48;100.00;96275.31;4852397;29;20033;-83
2023/01/16 01:40:59;;;;;;;32.58;17.23;;;;;;;5.64;100.00;96283.44;4852209;29;20029;-84
2023/01/16 01:43:48;;;;;;;32.20;17.02;;;;;;;5.64;100.00;96281.63;4849739;29;20037;-85
2023/01/16 01:46:27;;;;;;;41.25;16.80;;;;;;;5.67;100.00;96275.16;4849297;29;20026;-83
2023/01/16 01:48:59;;;;;;;31.17;15.90;;;;;;;5.66;100.00;96263.97;4854971;29;20033;-83
2023/01/16 01:51:39;;;;;;;29.50;15.93;;;;;;;5.80;100.00;96268.91;4850647;29;20033;-83
2023/01/16 01:54:10;;;;;;;31.98;15.70;;;;;;;5.76;100.00;96263.38;4852258;29;20103;-83
2023/01/16 01:56:47;;;;;;;34.08;16.45;;;;;;;5.86;100.00;96265.38;4855272;29;20048;-83
2023/01/16 01:59:23;;;;;;;38.30;17.92;;;;;;;6.02;100.00;96266.47;4852480;29;20151;-83
2023/01/16 02:01:49;;;;;;;34.65;16.92;;;;;;;6.04;100.00;96258.44;4826897;29;20103;-84
2023/01/16 02:04:18;;;;;;;37.13;17.88;;;;;;;6.12;100.00;96256.22;4849788;29;20046;-84
2023/01/16 02:06:51;;;;;;;36.00;17.15;;;;;;;6.16;100.00;96256.53;4854160;29;20036;-84
2023/01/16 02:09:18;;;;;;;36.42;17.13;;;;;;;6.20;100.00;96254.25;4835182;29;20041;-83
2023/01/16 02:12:06;;;;;;;33.95;17.67;;;;;;;6.20;100.00;96251.66;4838847;29;20113;-82
2023/01/16 02:14:35;;;;;;;35.60;17.63;;;;;;;6.13;100.00;96250.00;4839628;29;20044;-83
2023/01/16 02:20:13;;;;;;;36.33;16.63;;;;;;;6.22;100.00;96255.63;4847401;29;20090;-83
2023/01/16 02:23:00;;;;;;;33.42;15.27;;;;;;;6.29;100.00;96253.63;4853471;29;20041;-83
2023/01/16 02:25:55;;;;;;;26.45;14.20;;;;;;;6.31;100.00;96247.41;4832129;29;20033;-83
2023/01/16 02:28:36;;;;;;;26.25;13.95;;;;;;;6.27;100.00;96247.06;4852323;29;20140;-82
2023/01/16 02:31:17;;;;;;;27.85;13.82;;;;;;;6.36;100.00;96245.69;4847719;29;20101;-82
2023/01/16 02:34:24;;;;;;;26.25;14.20;;;;;;;6.26;100.00;96245.50;4852935;29;20084;-82
2023/01/16 02:37:27;;;;;;;32.97;15.25;;;;;;;6.36;100.00;96237.88;4853024;29;20065;-83
2023/01/16 02:40:07;;;;;;;32.22;15.95;;;;;;;6.25;100.00;96246.53;4849666;29;20058;-83
2023/01/16 02:42:45;;;;;;;33.10;15.63;;;;;;;6.28;100.00;96233.03;4817153;29;20040;-84
2023/01/16 02:45:27;;;;;;;31.08;14.60;;;;;;;6.21;100.00;96235.00;4852602;29;20040;-84
2023/01/16 02:48:15;;;;;;;31.95;14.93;;;;;;;6.18;100.00;96230.28;4853395;29;20034;-85
2023/01/16 02:51:10;;;;;;;31.88;15.60;;;;;;;5.96;100.00;96225.72;4853882;29;20062;-83
2023/01/16 02:53:45;;;;;;;32.08;14.55;;;;;;;5.89;100.00;96222.44;4849816;29;20046;-84
2023/01/16 02:56:15;;;;;;;33.92;14.95;;;;;;;5.88;100.00;96221.69;4846335;29;20160;-84
2023/01/16 02:58:47;;;;;;;32.80;15.40;;;;;;;5.88;100.00;96220.88;4837365;29;20102;-85
2023/01/16 03:01:13;;;;;;;28.70;14.73;;;;;;;5.93;100.00;96211.34;4835785;29;20026;-85
2023/01/16 03:03:47;;;;;;;30.60;14.65;;;;;;;6.09;100.00;96220.25;4836937;29;20038;-84
2023/01/16 03:06:37;;;;;;;32.65;14.93;;;;;;;5.92;100.00;96214.19;4836716;29;20569;-83
2023/01/16 03:09:15;;;;;;;31.15;15.57;;;;;;;5.86;100.00;96224.50;4841993;29;20038;-84
2023/01/16 03:11:52;;;;;;;26.55;13.98;;;;;;;5.91;100.00;96207.41;4840359;29;20118;-84
2023/01/16 03:14:28;;;;;;;28.85;13.73;;;;;;;5.80;100.00;96215.03;4833841;29;20021;-84
2023/01/16 03:17:29;;;;;;;30.38;14.50;;;;;;;5.98;100.00;96213.25;4829148;29;20084;-82
2023/01/16 03:20:00;;;;;;;28.88;14.38;;;;;;;5.83;100.00;96191.13;4839459;29;20458;-83
2023/01/16 03:22:38;;;;;;;23.73;12.57;;;;;;;5.99;100.00;96204.41;4832983;29;20386;-84
2023/01/16 03:25:28;;;;;;;29.17;13.77;;;;;;;6.04;100.00;96208.94;4831591;29;20097;-84
2023/01/16 03:28:14;;;;;;;25.38;12.85;;;;;;;5.86;100.00;96198.47;4841680;29;20037;-83
2023/01/16 03:31:05;;;;;;;28.83;13.82;;;;;;;5.88;100.00;96197.44;4839779;29;20106;-84
2023/01/16 03:34:02;;;;;;;26.77;13.50;;;;;;;5.81;100.00;96182.78;4850576;29;20052;-84
2023/01/16 03:36:33;;;;;;;27.50;14.13;;;;;;;5.86;100.00;96197.69;4836556;29;20030;-84
2023/01/16 03:39:01;;;;;;;27.77;13.20;;;;;;;5.79;100.00;96195.22;4835942;29;20412;-84
2023/01/16 03:41:29;;;;;;;32.85;15.38;;;;;;;5.88;100.00;96187.84;4832887;29;20133;-82
2023/01/16 03:44:01;;;;;;;30.95;14.75;;;;;;;6.03;100.00;96192.53;4835591;29;20038;-82
2023/01/16 03:46:31;;;;;;;33.15;16.50;;;;;;;5.80;100.00;96186.41;4833125;29;20090;-82
2023/01/16 03:49:13;;;;;;;37.53;18.20;;;;;;;5.84;100.00;96187.50;4836787;29;20126;-83
2023/01/16 03:51:45;;;;;;;50.13;17.33;;;;;;;5.69;100.00;96179.44;4837834;29;20034;-83
2023/01/16 03:54:22;;;;;;;39.42;19.35;;;;;;;5.88;100.00;96181.81;4853676;29;20034;-84
2023/01/16 03:57:01;;;;;;;46.85;22.08;;;;;;;5.69;100.00;96169.81;4839247;29;20071;-84
2023/01/16 03:59:27;;;;;;;45.38;21.67;;;;;;;5.69;100.00;96159.41;4855739;29;20392;-83
2023/01/16 04:02:03;;;;;;;54.38;24.40;;;;;;;5.84;100.00;96177.09;4852444;29;20034;-84
2023/01/16 04:04:45;;;;;;;56.47;22.55;;;;;;;5.71;100.00;96172.19;4855404;29;20089;-83
2023/01/16 04:07:51;;;;;;;49.00;21.55;;;;;;;5.78;100.00;96166.81;4859326;29;20074;-83
2023/01/16 04:10:24;;;;;;;47.17;21.02;;;;;;;5.69;100.00;96159.41;4841765;29;20065;-83
2023/01/16 04:12:56;;;;;;;47.25;22.38;;;;;;;5.27;100.00;96157.88;4849577;29;20129;-83
2023/01/16 04:15:24;;;;;;;45.15;21.02;;;;;;;5.66;100.00;96169.47;4853305;29;20037;-83
2023/01/16 04:17:51;;;;;;;58.38;22.73;;;;;;;5.56;100.00;96160.50;4855796;29;20494;-83
2023/01/16 04:20:17;;;;;;;53.85;23.00;;;;;;;5.18;100.00;96161.06;4856950;29;20080;-83
2023/01/16 04:22:48;;;;;;;64.93;25.02;;;;;;;5.37;100.00;96159.09;4841292;29;20037;-83
2023/01/16 04:25:14;;;;;;;66.65;26.30;;;;;;;5.26;100.00;96161.50;4850324;29;20419;-84
2023/01/16 04:27:40;;;;;;;62.72;25.90;;;;;;;5.23;100.00;96156.75;4839271;29;20041;-84
2023/01/16 04:30:07;;;;;;;69.10;28.30;;;;;;;5.10;100.00;96151.81;4851697;29;20041;-84
2023/01/16 04:32:32;;;;;;;74.13;28.98;;;;;;;5.22;100.00;96160.38;4840221;29;20044;-83
2023/01/16 04:34:58;;;;;;;74.55;28.20;;;;;;;5.42;100.00;96159.19;4852118;29;20116;-84
2023/01/16 04:37:23;;;;;;;78.20;30.63;;;;;;;5.39;100.00;96154.44;4832476;29;20045;-82
2023/01/16 04:39:49;;;;;;;74.20;29.58;;;;;;;5.22;100.00;96157.00;4853841;29;20101;-81
2023/01/16 04:42:15;;;;;;;73.82;30.52;;;;;;;5.32;100.00;96154.59;4855717;29;20057;-82
2023/01/16 04:44:41;;;;;;;75.43;29.42;;;;;;;5.53;100.00;96155.75;4852814;29;20068;-84
2023/01/16 04:47:07;;;;;;;79.05;29.83;;;;;;;5.35;100.00;96153.34;4836307;29;20799;-82
2023/01/16 04:49:32;;;;;;;71.45;28.08;;;;;;;5.65;100.00;96147.09;4853782;29;20081;-83
2023/01/16 04:51:58;;;;;;;71.13;28.10;;;;;;;5.64;100.00;96161.94;4855200;29;20113;-84
2023/01/16 04:54:24;;;;;;;83.47;29.75;;;;;;;5.70;100.00;96152.41;4852560;29;20029;-83
2023/01/16 04:56:49;;;;;;;85.10;30.08;;;;;;;5.23;100.00;96156.75;4842506;29;20137;-83
2023/01/16 04:59:15;;;;;;;95.78;28.83;;;;;;;5.41;100.00;96158.41;4834954;29;20046;-83
2023/01/16 05:01:42;;;;;;;72.53;28.25;;;;;;;5.41;100.00;96147.19;4841498;29;20022;-83
2023/01/16 05:04:09;;;;;;;65.28;27.35;;;;;;;5.45;100.00;96152.75;4835132;29;20034;-82
2023/01/16 05:06:35;;;;;;;75.13;24.65;;;;;;;5.22;100.00;96144.78;4827745;29;20135;-83
2023/01/16 05:09:04;;;;;;;67.13;24.95;;;;;;;5.25;100.00;96148.75;4835316;29;20078;-83
2023/01/16 05:11:30;;;;;;;61.50;23.92;;;;;;;5.36;100.00;96136.72;4837535;29;20033;-83
2023/01/16 05:13:57;;;;;;;54.30;23.15;;;;;;;5.25;100.00;96133.13;4824276;29;20026;-83
2023/01/16 05:16:22;;;;;;;50.88;21.38;;;;;;;5.01;100.00;96130.59;4841217;29;20038;-82
2023/01/16 05:18:49;;;;;;;51.50;20.55;;;;;;;4.84;100.00;96133.13;4823086;29;20034;-83
2023/01/16 05:21:15;;;;;;;41.80;19.08;;;;;;;4.82;100.00;96135.16;4835335;29;20129;-83
2023/01/16 05:23:40;;;;;;;54.83;19.00;;;;;;;4.80;100.00;96116.41;4826554;29;20034;-83
2023/01/16 05:26:06;;;;;;;44.88;19.02;;;;;;;4.86;100.00;96118.91;4842910;29;20109;-83
2023/01/16 05:28:33;;;;;;;49.03;18.33;;;;;;;4.78;100.00;96118.47;4826847;29;20069;-83
2023/01/16 05:30:59;;;;;;;48.05;18.10;;;;;;;4.45;100.00;96119.84;4827773;29;20038;-83
2023/01/16 05:33:26;;;;;;;46.42;17.40;;;;;;;4.53;100.00;96117.69;4838886;29;20045;-83
2023/01/16 05:35:52;;;;;;;39.08;17.20;;;;;;;4.64;100.00;96133.53;4834970;29;20041;-82
2023/01/16 05:38:17;;;;;;;44.13;17.27;;;;;;;4.31;100.00;96132.28;4834143;29;20481;-82
2023/01/16 05:40:44;;;;;;;33.75;15.93;;;;;;;4.41;100.00;96128.09;4837934;29;20030;-82
2023/01/16 05:43:10;;;;;;;43.90;16.58;;;;;;;4.46;100.00;96117.03;4826184;29;20042;-82
2023/01/16 05:45:36;;;;;;;39.78;14.93;;;;;;;4.25;100.00;96121.78;4838356;29;20018;-82
2023/01/16 05:48:02;;;;;;;38.17;15.52;;;;;;;4.22;100.00;96121.44;4831114;29;20482;-82
2023/01/16 05:50:27;;;;;;;42.67;15.73;;;;;;;3.98;100.00;96116.25;4837617;29;20041;-82
2023/01/16 05:52:53;;;;;;;35.22;15.48;;;;;;;4.11;100.00;96110.81;4843011;29;20056;-82
2023/01/16 05:55:18;;;;;;;47.97;15.07;;;;;;;4.01;100.00;96105.41;4839150;29;20054;-82
2023/01/16 05:57:44;;;;;;;34.03;12.88;;;;;;;3.86;100.00;96093.66;4852857;29;20038;-82
2023/01/16 06:00:10;;;;;;;39.72;14.32;;;;;;;4.11;100.00;96110.81;4839806;29;20038;-82
2023/01/16 06:02:36;;;;;;;29.80;13.82;;;;;;;3.92;100.00;96112.75;4850728;29;20112;-82
2023/01/16 06:05:02;;;;;;;44.00;14.23;;;;;;;4.13;100.00;96111.41;4855094;29;20106;-82
2023/01/16 06:07:28;;;;;;;34.25;13.48;;;;;;;4.22;100.00;96111.06;4853465;29;20050;-81
2023/01/16 06:09:54;;;;;;;36.35;13.27;;;;;;;4.11;100.00;96113.41;4839837;29;20509;-81
2023/01/16 06:12:20;;;;;;;36.45;12.50;;;;;;;4.11;100.00;96102.25;4856631;29;20045;-81
2023/01/16 06:14:46;;;;;;;39.92;14.20;;;;;;;3.91;100.00;96093.00;4848461;29;20034;-82
2023/01/16 06:17:15;;;;;;;37.58;12.68;;;;;;;3.90;100.00;96111.38;4849397;29;20427;-82
2023/01/16 06:19:43;;;;;;;31.75;11.80;;;;;;;4.25;100.00;96105.41;4853829;29;20132;-81
2023/01/16 06:22:09;;;;;;;30.55;12.25;;;;;;;4.39;100.00;96109.38;4835224;29;20086;-81
2023/01/16 06:24:35;;;;;;;34.72;12.73;;;;;;;4.41;100.00;96117.72;4855112;29;20031;-82
2023/01/16 06:27:01;;;;;;;33.13;13.75;;;;;;;4.33;100.00;96112.06;4834405;29;20086;-82
2023/01/16 06:29:28;;;;;;;32.95;13.13;;;;;;;4.20;100.00;96106.09;4847647;29;20443;-82
2023/01/16 06:31:54;;;;;;;35.90;12.95;;;;;;;4.21;100.00;96114.69;4850285;29;20042;-83
2023/01/16 06:34:20;;;;;;;31.20;12.52;;;;;;;3.88;100.00;96095.25;4854880;29;20102;-83
2023/01/16 06:36:47;;;;;;;30.63;11.07;;;;;;;4.24;100.00;96104.63;4853480;29;20726;-83
2023/01/16 06:39:13;;;;;;;36.95;10.75;;;;;;;4.21;100.00;96109.47;4851251;29;20030;-80
2023/01/16 06:41:39;;;;;;;28.50;10.60;;;;;;;4.27;100.00;96113.75;4855160;29;20097;-81
2023/01/16 06:44:05;;;;;;;39.75;12.55;;;;;;;4.21;100.00;96110.25;4835934;29;20058;-82
2023/01/16 06:46:31;;;;;;;36.95;14.10;;;;;;;4.13;100.00;96108.81;4855206;29;20034;-81
2023/01/16 06:48:56;;;;;;;39.13;15.00;;;;;;;4.20;100.00;96118.28;4848856;29;20515;-83
2023/01/16 06:51:22;;;;;;;33.10;11.48;;;;;;;4.09;100.00;96112.84;4853121;29;20113;-82
2023/01/16 06:53:48;;;;;;;29.50;10.27;;;;;;;4.13;100.00;96118.41;4851129;29;20506;-84
2023/01/16 06:56:14;;;;;;;27.75;10.18;;;;;;;4.38;100.00;96112.97;4853909;29;20049;-82
2023/01/16 06:58:40;;;;;;;26.67;9.43;;;;;;;4.31;100.00;96125.28;4853437;29;20049;-83
2023/01/16 07:01:06;;;;;;;24.52;8.18;;;;;;;4.08;100.00;96124.25;4847998;29;20030;-82
2023/01/16 07:03:32;;;;;;;15.05;6.15;;;;;;;4.25;100.00;96108.81;4848246;29;20362;-83
2023/01/16 07:05:58;;;;;;;29.80;7.60;;;;;;;4.21;100.00;96112.09;4829809;29;20086;-82
2023/01/16 07:08:23;;;;;;;12.38;5.65;;;;;;;4.08;100.00;96121.66;4849973;29;20054;-82
2023/01/16 07:10:49;;;;;;;13.88;5.43;;;;;;;3.97;100.00;96118.03;4852070;29;20120;-83
2023/01/16 07:13:15;;;;;;;12.18;4.85;;;;;;;4.08;100.00;96121.66;4852746;29;20026;-83
2023/01/16 07:24:10;;;;;;;12.35;5.30;;;;;;;4.02;100.00;96122.56;4855907;29;20449;-83
2023/01/16 07:26:40;;;;;;;15.18;5.72;;;;;;;4.14;100.00;96114.78;4852120;29;20034;-83
2023/01/16 07:29:06;;;;;;;14.48;5.68;;;;;;;3.99;100.00;96123.03;4838224;29;20038;-82
2023/01/16 07:31:33;;;;;;;17.02;6.13;;;;;;;4.03;100.00;96139.72;4849425;29;20042;-82
2023/01/16 07:33:59;;;;;;;15.57;6.03;;;;;;;3.83;100.00;96130.44;4850670;29;20050;-84
2023/01/16 07:36:24;;;;;;;18.30;6.45;;;;;;;4.10;100.00;96134.44;4853793;29;20026;-86
2023/01/16 07:38:50;;;;;;;19.50;6.50;;;;;;;3.87;100.00;96120.41;4851555;29;20038;-84
2023/01/16 07:41:16;;;;;;;16.10;6.45;;;;;;;3.50;100.00;96110.97;4837306;29;20075;-83
2023/01/16 07:43:41;;;;;;;28.45;8.32;;;;;;;4.05;100.00;96123.94;4849428;29;20034;-81
2023/01/16 07:46:08;;;;;;;24.80;7.47;;;;;;;3.77;100.00;96118.38;4853082;29;20026;-80
2023/01/16 07:48:34;;;;;;;20.58;7.10;;;;;;;3.89;100.00;96118.38;4854350;29;20041;-81
2023/01/16 07:50:59;;;;;;;20.83;7.85;;;;;;;3.81;100.00;96129.88;4853448;29;20485;-81
2023/01/16 07:53:27;;;;;;;18.58;7.80;;;;;;;4.01;100.00;96136.56;4853471;29;20043;-84
2023/01/16 07:56:04;;;;;;;29.40;8.50;;;;;;;3.74;100.00;96120.59;4833486;29;20054;-81
2023/01/16 07:58:41;;;;;;;24.40;8.60;;;;;;;3.78;100.00;96119.16;4823418;29;20049;-85
2023/01/16 08:01:06;;;;;;;28.98;9.48;;;;;;;3.74;100.00;96121.41;4854737;29;20059;-83
2023/01/16 08:03:32;;;;;;;22.50;8.13;;;;;;;3.66;100.00;96113.94;4856450;29;20037;-82
2023/01/16 08:05:58;;;;;;;24.88;9.55;;;;;;;3.64;100.00;96129.75;4854311;29;20081;-81
2023/01/16 08:08:25;;;;;;;17.80;8.25;;;;;;;3.95;100.00;96150.44;4846569;29;20519;-81
2023/01/16 08:11:35;;;;;;;25.70;8.30;;;;;;;3.85;100.00;96143.97;4852318;29;20033;-83
2023/01/16 08:13:46;;;;;;;19.77;7.82;;;;;;;3.86;100.00;96147.38;4851151;29;20034;-78
2023/01/16 08:16:12;;;;;;;17.83;7.45;;;;;;;3.75;100.00;96145.53;4851138;29;20041;-79
2023/01/16 08:18:37;;;;;;;22.17;7.43;;;;;;;3.88;100.00;96147.13;4849361;29;20049;-77
2023/01/16 08:21:03;;;;;;;20.65;7.55;;;;;;;4.00;100.00;96153.16;4850950;29;20029;-78
2023/01/16 08:23:29;;;;;;;16.95;7.50;;;;;;;4.33;100.00;96156.22;4852826;29;20037;-78
2023/01/16 08:25:54;;;;;;;20.17;6.40;;;;;;;4.17;100.00;96157.69;4851538;29;20037;-77
2023/01/16 08:28:20;;;;;;;16.58;7.07;;;;;;;4.08;100.00;96155.41;4836753;29;20049;-78
2023/01/16 08:30:46;;;;;;;13.00;6.30;;;;;;;4.07;100.00;96161.63;4851930;29;20034;-78
2023/01/16 08:33:11;;;;;;;14.60;7.72;;;;;;;3.98;100.00;96165.56;4854368;29;20101;-79
2023/01/16 08:35:38;;;;;;;13.20;6.60;;;;;;;3.97;100.00;96161.38;4846595;29;20058;-79
2023/01/16 08:38:03;;;;;;;21.05;6.90;;;;;;;4.24;100.00;96172.16;4848887;29;20029;-80
2023/01/16 08:40:29;;;;;;;23.98;7.00;;;;;;;4.24;100.00;96176.53;4835853;29;20434;-80
2023/01/16 08:51:22;;;;;;;16.90;6.50;;;;;;;4.68;100.00;96171.78;4848907;29;20042;-79
2023/01/16 08:53:48;;;;;;;22.08;7.72;;;;;;;4.42;100.00;96162.66;4835062;29;20076;-78
2023/01/16 08:56:14;;;;;;;15.55;6.82;;;;;;;4.56;100.00;96194.41;4847271;29;20054;-79
2023/01/16 08:58:39;;;;;;;24.25;7.38;;;;;;;4.57;100.00;96185.59;4852163;29;20087;-77
2023/01/16 09:01:05;;;;;;;19.55;7.00;;;;;;;4.24;100.00;96182.53;4851172;29;20017;-79
2023/01/16 09:03:33;;;;;;;18.48;7.18;;;;;;;4.64;100.00;96182.88;4849311;29;20037;-77
2023/01/16 09:06:01;;;;;;;15.48;7.18;;;;;;;4.50;100.00;96190.09;4851443;29;20034;-77
2023/01/16 09:08:26;;;;;;;16.40;7.65;;;;;;;4.86;100.00;96188.25;4832886;29;20037;-78
2023/01/16 09:13:49;;;;;;;16.45;5.25;;;;;;;4.64;100.00;96201.84;4851052;29;20472;-78
2023/01/16 09:16:25;;;;;;;11.43;6.07;;;;;;;4.80;100.00;96194.38;4832264;29;20062;-80
2023/01/16 09:18:51;;;;;;;14.40;6.53;;;;;;;4.86;100.00;96207.25;4849386;29;20041;-77
2023/01/16 09:21:23;;;;;;;17.20;6.50;;;;;;;4.75;100.00;96199.47;4848872;29;20034;-78
2023/01/16 09:23:49;;;;;;;13.70;6.32;;;;;;;4.92;100.00;96213.38;4850835;29;20040;-78
2023/01/16 09:26:15;;;;;;;13.23;6.28;;;;;;;4.79;100.00;96203.19;4848023;29;20060;-78
2023/01/16 09:28:41;;;;;;;10.65;5.05;;;;;;;4.66;100.00;96205.00;4853969;29;20491;-79
2023/01/16 09:31:08;;;;;;;14.95;4.40;;;;;;;4.71;100.00;96197.31;4849049;29;20034;-78
2023/01/16 09:33:34;;;;;;;13.27;5.45;;;;;;;4.80;100.00;96204.78;4850328;29;20052;-78
2023/01/16 09:35:59;;;;;;;8.98;4.50;;;;;;;4.82;100.00;96200.16;4834783;29;20034;-80
2023/01/16 09:38:27;;;;;;;11.55;4.32;;;;;;;5.00;100.00;96196.59;4851375;29;20389;-82
2023/01/16 09:40:56;;;;;;;11.75;4.50;;;;;;;5.15;100.00;96211.75;4850849;29;20041;-82
2023/01/16 09:43:38;;;;;;;10.32;4.43;;;;;;;5.00;100.00;96215.59;4854717;29;20045;-82
2023/01/16 09:46:19;;;;;;;11.43;4.13;;;;;;;5.27;100.00;96202.09;4853588;29;20026;-78
2023/01/16 09:48:50;;;;;;;8.80;4.30;;;;;;;5.17;100.00;96207.09;4854916;29;20041;-77
2023/01/16 09:51:22;;;;;;;10.32;3.90;;;;;;;5.11;100.00;96216.59;4851887;29;20041;-80
2023/01/16 09:59:36;;;;;;;8.35;3.63;;;;;;;4.70;100.00;96226.91;4857590;29;20033;-80
2023/01/16 10:02:21;;;;;;;5.97;3.63;;;;;;;4.97;100.00;96228.25;4852073;29;20034;-82
2023/01/16 10:04:49;;;;;;;12.20;3.72;;;;;;;4.93;100.00;96235.75;4851960;29;20045;-80
2023/01/16 10:07:56;;;;;;;9.73;4.03;;;;;;;4.81;100.00;96227.94;4854040;29;22091;-81
2023/01/16 10:10:43;;;;;;;11.73;4.55;;;;;;;4.82;100.00;96239.13;4833355;29;20061;-83
2023/01/16 10:13:08;;;;;;;11.85;5.00;;;;;;;4.85;100.00;96236.88;4850080;29;20025;-80
2023/01/16 10:16:06;;;;;;;14.85;5.80;;;;;;;4.76;100.00;96240.03;4854110;29;20036;-80
2023/01/16 10:18:52;;;;;;;21.05;6.22;;;;;;;4.93;100.00;96234.94;4842054;29;20054;-80
2023/01/16 10:21:30;;;;;;;10.82;5.32;;;;;;;4.59;100.00;96245.91;4834958;29;20048;-80
2023/01/16 10:24:07;;;;;;;14.93;7.10;;;;;;;4.27;100.00;96228.00;4847318;29;20070;-80
2023/01/16 10:26:58;;;;;;;12.50;6.45;;;;;;;4.31;100.00;96249.91;4849960;29;20033;-78
2023/01/16 10:29:30;;;;;;;9.90;6.07;;;;;;;3.91;100.00;96240.91;4848554;29;20437;-79
2023/01/16 10:32:14;;;;;;;16.35;7.20;;;;;;;3.84;100.00;96245.41;4850373;29;20088;-75
2023/01/16 10:35:00;;;;;;;;;;;;;;;3.83;100.00;96257.59;4850381;29;20120;-77
2023/01/16 10:37:26;;;;;;;16.48;8.02;;;;;;;3.77;100.00;96255.06;4833124;29;19920;-77
2023/01/16 10:39:54;;;;;;;12.38;7.50;;;;;;;4.19;100.00;96246.53;4844302;29;20038;-78
2023/01/16 10:51:01;;;;;;;19.42;8.93;;;;;;;4.66;100.00;96251.78;4847539;29;20062;-79
2023/01/16 10:53:30;;;;;;;12.68;6.88;;;;;;;3.96;100.00;96268.81;4851088;29;20485;-79
2023/01/16 10:55:56;;;;;;;12.45;7.53;;;;;;;3.70;100.00;96283.69;4846306;29;20089;-77
2023/01/16 10:58:31;;;;;;;12.15;7.78;;;;;;;3.26;100.00;96284.56;4828104;29;20042;-79
2023/01/16 11:01:06;;;;;;;10.80;6.95;;;;;;;2.99;100.00;96297.00;4832305;29;20031;-77
2023/01/16 11:03:36;;;;;;;11.35;7.15;;;;;;;3.04;100.00;96293.78;4829038;29;20034;-78
2023/01/16 11:06:22;;;;;;;12.02;6.68;;;;;;;2.88;100.00;96288.13;4831112;29;20057;-77
2023/01/16 11:09:02;;;;;;;10.80;6.43;;;;;;;2.68;100.00;96285.72;4832321;29;20064;-78
2023/01/16 11:20:08;;;;;;;5.43;3.72;;;;;;;2.56;100.00;96296.75;4836562;29;20113;-79
2023/01/16 11:22:39;;;;;;;4.32;2.83;;;;;;;2.79;100.00;96292.00;4835704;29;20034;-78
2023/01/16 11:25:05;;;;;;;4.20;2.65;;;;;;;2.70;100.00;96278.53;4836820;29;20473;-79
2023/01/16 11:27:36;;;;;;;7.35;3.10;;;;;;;2.70;100.00;96279.31;4832766;29;20099;-78
2023/01/16 11:30:19;;;;;;;4.18;3.20;;;;;;;2.59;100.00;96286.97;4831540;29;20389;-78
2023/01/16 11:32:48;;;;;;;14.80;4.63;;;;;;;2.50;100.00;96286.44;4831564;29;20038;-81
2023/01/16 11:35:16;;;;;;;11.32;3.78;;;;;;;3.05;100.00;96285.00;4834763;29;20046;-79
2023/01/16 11:37:49;;;;;;;4.30;2.92;;;;;;;2.87;100.00;96288.38;4831319;29;20027;-78
2023/01/16 11:40:27;;;;;;;3.30;2.50;;;;;;;2.95;100.00;96281.09;4827420;29;20100;-79
2023/01/16 11:46:02;;;;;;;3.22;2.70;;;;;;;3.41;100.00;96262.69;4834760;29;20053;-79
2023/01/16 11:48:41;;;;;;;3.92;2.83;;;;;;;3.19;100.00;96270.91;4831682;29;20034;-78
2023/01/16 11:51:12;;;;;;;3.05;2.40;;;;;;;3.21;100.00;96263.69;4836325;29;20034;-78
2023/01/16 11:53:38;;;;;;;5.68;2.83;;;;;;;3.02;100.00;96273.25;4832838;29;20037;-81
2023/01/16 11:56:04;;;;;;;3.25;2.00;;;;;;;2.87;100.00;96268.41;4852397;29;20053;-79
2023/01/16 11:58:48;;;;;;;2.55;2.10;;;;;;;3.07;100.00;96267.44;4853724;29;20050;-78
2023/01/16 12:01:25;;;;;;;3.28;2.33;;;;;;;3.05;100.00;96261.69;4841047;29;20037;-80
2023/01/16 12:04:13;;;;;;;2.78;1.98;;;;;;;3.11;100.00;96263.41;4855247;29;20030;-79
2023/01/16 12:07:02;;;;;;;4.03;2.45;;;;;;;3.09;100.00;96266.22;4852563;29;20086;-79
2023/01/16 12:10:02;;;;;;;2.20;2.00;;;;;;;3.17;100.00;96270.34;4855184;29;20038;-79
2023/01/16 12:16:03;;;;;;;2.22;1.85;;;;;;;3.27;100.00;96269.84;4854406;29;20568;-79
2023/01/16 12:18:59;;;;;;;3.45;2.15;;;;;;;3.80;100.00;96265.00;4776769;30;20040;-80
2023/01/16 12:21:59;;;;;;;2.83;2.08;;;;;;;3.64;100.00;96261.22;4852955;29;20045;-79
2023/01/16 12:24:46;;;;;;;2.90;1.90;;;;;;;3.90;100.00;96264.47;4854948;29;20042;-79
2023/01/16 12:27:22;;;;;;;3.78;1.60;;;;;;;3.59;100.00;96263.69;4826762;29;20097;-79
2023/01/16 12:29:51;;;;;;;1.92;1.70;;;;;;;2.92;100.00;96271.16;4855806;29;20058;-79
2023/01/16 12:32:33;;;;;;;2.65;2.03;;;;;;;2.89;100.00;96276.75;4840188;29;20036;-80